Data for 11/05/2006

Time Sea-Level Adjusted Pressure Absolute Pressure Temperature Relative Humidity Dew Point   
(mb) (inHg) (mb) (inHg) (C) (F) (%) (C) (F)
00:05 1018 30.06 848 25.04 4.7 40.5 59 -2.5 27.5
00:10 1018 30.06 848 25.04 4.6 40.3 61 -2.3 27.8
00:15 1018 30.06 848 25.04 4.4 40 62 -2.2 28
00:20 1018 30.06 848 25.04 4 39.3 63 -2.4 27.7
00:25 1018 30.06 848 25.04 4.1 39.4 62 -2.5 27.6
00:30 1018 30.06 848 25.04 4.6 40.2 60 -2.5 27.5
00:35 1018 30.06 848 25.04 4.6 40.2 61 -2.4 27.7
00:40 1018 30.06 848 25.04 4.2 39.5 63 -2.3 27.8
00:45 1018 30.06 848 25.04 4.4 40 60 -2.6 27.4
00:50 1018 30.06 848 25.04 5 41 58 -2.5 27.5
00:55 1018 30.06 848 25.04 5 40.9 60 -2.2 28
01:00 1018 30.06 848 25.04 4.7 40.4 59 -2.7 27.2
01:05 1018 30.06 848 25.04 4.8 40.7 59 -2.4 27.7
01:10 1018 30.06 848 25.04 4.4 39.9 61 -2.4 27.6
01:15 1018 30.06 848 25.04 4.4 40 60 -2.6 27.4
01:20 1018 30.06 848 25.04 4.2 39.5 62 -2.4 27.7
01:25 1018 30.06 848 25.04 3.6 38.5 64 -2.5 27.4
01:30 1018 30.06 848 25.04 3.7 38.7 63 -2.7 27.1
01:35 1018 30.06 848 25.04 3.9 39 63 -2.6 27.3
01:40 1018 30.06 848 25.04 3.5 38.3 65 -2.5 27.5
01:45 1018 30.06 848 25.04 3.6 38.6 64 -2.6 27.4
01:50 1018 30.06 847 25.01 3.8 38.8 63 -2.6 27.4
01:55 1018 30.06 847 25.01 3.4 38.2 65 -2.5 27.6
02:00 1018 30.06 847 25.01 3.6 38.4 63 -2.7 27.1
02:05 1018 30.06 847 25.01 3.8 38.9 63 -2.5 27.5
02:10 1018 30.06 847 25.01 4.2 39.5 61 -2.7 27.2
02:15 1018 30.06 847 25.01 4.8 40.7 58 -2.7 27.2
02:20 1018 30.06 847 25.01 6.1 42.9 52 -3 26.6
02:25 1018 30.06 847 25.01 7.7 45.8 45 -3.5 25.8
02:30 1018 30.06 847 25.01 8.1 46.5 51 -1.5 29.3
02:35 1018 30.06 847 25.01 6.9 44.5 51 -2.5 27.5
02:40 1018 30.06 847 25.01 6.7 44 53 -2.3 27.8
02:45 1018 30.06 847 25.01 6.8 44.2 52 -2.3 27.8
02:50 1017 30.03 847 25.01 7.1 44.7 54 -1.6 29.1
02:55 1017 30.03 847 25.01 6.8 44.3 54 -1.9 28.5
03:00 1017 30.03 847 25.01 8 46.4 49 -2 28.4
03:05 1017 30.03 847 25.01 8.5 47.3 47 -2.3 27.9
03:10 1018 30.06 847 25.01 9 48.1 45 -2.2 28.1
03:15 1017 30.03 847 25.01 9 48.3 45 -2.2 28
03:20 1017 30.03 847 25.01 9.1 48.4 45 -2.2 28
03:25 1017 30.03 847 25.01 9 48.2 46 -2.1 28.3
03:30 1017 30.03 846 24.98 8.9 48.1 46 -2.1 28.2
03:35 1017 30.03 846 24.98 9 48.1 45 -2.3 27.9
03:40 1017 30.03 846 24.98 9.2 48.6 44 -2.4 27.7
03:45 1017 30.03 846 24.98 9.2 48.6 46 -1.8 28.7
03:50 1017 30.03 846 24.98 8.9 48 47 -1.8 28.7
03:55 1017 30.03 846 24.98 9.1 48.4 45 -2.2 28.1
04:00 1017 30.03 846 24.98 9.2 48.6 45 -2.1 28.3
04:05 1017 30.03 846 24.98 9.3 48.7 46 -1.9 28.6
04:10 1017 30.03 846 24.98 9.3 48.7 45 -1.9 28.5
04:15 1017 30.03 846 24.98 9.4 48.9 45 -2 28.3
04:20 1017 30.03 846 24.98 9.4 48.9 46 -1.7 29
04:25 1017 30.03 846 24.98 9.4 48.8 46 -1.6 29.1
04:30 1017 30.03 846 24.98 9.1 48.4 48 -1.4 29.5
04:35 1017 30.03 846 24.98 9.1 48.4 47 -1.6 29.1
04:40 1017 30.03 846 24.98 9.2 48.6 47 -1.4 29.5
04:45 1017 30.03 846 24.98 9 48.2 49 -1.1 30
04:50 1017 30.03 846 24.98 8.8 47.8 50 -0.9 30.3
04:55 1017 30.03 846 24.98 8.6 47.5 51 -0.9 30.4
05:00 1017 30.03 846 24.98 8.6 47.4 51 -0.9 30.3
05:05 1017 30.03 846 24.98 8.7 47.6 51 -1 30.3
05:10 1017 30.03 846 24.98 8.7 47.7 52 -0.7 30.8
05:15 1017 30.03 846 24.98 8.6 47.5 51 -0.8 30.5
05:20 1017 30.03 846 24.98 8.6 47.5 52 -0.7 30.7
05:25 1017 30.03 846 24.98 8.6 47.5 51 -0.9 30.5
05:30 1017 30.03 846 24.98 8.8 47.9 51 -0.8 30.5
05:35 1017 30.03 846 24.98 8.8 47.8 51 -0.7 30.8
05:40 1017 30.03 846 24.98 8.8 47.9 50 -0.9 30.4
05:45 1017 30.03 846 24.98 9 48.1 52 -0.4 31.2
05:50 1017 30.03 846 24.98 8.7 47.7 52 -0.5 31
05:55 1017 30.03 846 24.98 8.6 47.6 52 -0.7 30.7
06:00 1017 30.03 846 24.98 8.7 47.6 51 -0.8 30.6
06:05 1016 30 846 24.98 8.9 48 51 -0.8 30.6
06:10 1016 30 846 24.98 8.9 48 52 -0.4 31.3
06:15 1016 30 845 24.95 8.6 47.5 54 -0.2 31.6
06:20 1016 30 846 24.98 8.5 47.4 53 -0.4 31.3
06:25 1016 30 846 24.98 8.5 47.4 55 -0.1 31.9
06:30 1017 30.03 846 24.98 8.4 47.1 54 -0.3 31.4
06:35 1017 30.03 846 24.98 8.6 47.4 53 -0.4 31.2
06:40 1017 30.03 846 24.98 8.8 47.8 53 -0.3 31.4
06:45 1016 30 846 24.98 8.8 47.9 50 -1 30.2
06:50 1017 30.03 846 24.98 9 48.1 53 -0.1 31.8
06:55 1017 30.03 846 24.98 8.7 47.7 54 -0.1 31.8
07:00 1017 30.03 846 24.98 8.6 47.5 53 -0.4 31.3
07:05 1016 30 846 24.98 8.5 47.4 53 -0.4 31.4
07:10 1016 30 846 24.98 8.6 47.4 53 -0.5 31.2
07:15 1016 30 846 24.98 8.7 47.7 52 -0.5 31.1
07:20 1016 30 846 24.98 9.2 48.6 48 -1.2 29.9
07:25 1016 30 846 24.98 9.5 49 50 -0.4 31.2
07:30 1016 30 846 24.98 9.3 48.7 51 -0.4 31.4
07:35 1016 30 846 24.98 9.1 48.3 51 -0.5 31.1
07:40 1016 30 846 24.98 9.1 48.3 51 -0.6 31
07:45 1016 30 846 24.98 9.1 48.4 50 -0.7 30.8
07:50 1016 30 846 24.98 9.3 48.7 49 -0.9 30.3
07:55 1017 30.03 846 24.98 9.3 48.8 50 -0.6 30.9
08:00 1017 30.03 846 24.98 9.3 48.7 50 -0.5 31
08:05 1017 30.03 846 24.98 9.4 48.9 49 -0.8 30.6
08:10 1017 30.03 846 24.98 9.6 49.2 48 -0.9 30.3
08:15 1017 30.03 846 24.98 9.8 49.6 47 -1.1 30.1
08:20 1017 30.03 846 24.98 9.9 49.8 46 -1.1 30.1
08:25 1017 30.03 846 24.98 10.1 50.1 46 -0.9 30.3
08:30 1017 30.03 846 24.98 10.2 50.4 45 -1.2 29.9
08:35 1017 30.03 846 24.98 10.6 51.2 45 -0.8 30.5
08:40 1017 30.03 846 24.98 10.4 50.6 45 -1.1 30
08:45 1017 30.03 846 24.98 10.4 50.7 45 -1.1 30
08:50 1017 30.03 846 24.98 10.7 51.3 44 -1.1 30.1
08:55 1017 30.03 846 24.98 11.1 51.9 43 -1.1 30.1
09:00 1017 30.03 846 24.98 11.1 52 42 -1.3 29.7
09:05 1017 30.03 846 24.98 11.3 52.3 42 -1.2 29.8
09:10 1017 30.03 846 24.98 11.4 52.5 41 -1.3 29.7
09:15 1017 30.03 846 24.98 11.5 52.6 42 -1 30.1
09:20 1017 30.03 846 24.98 11.6 52.8 40 -1.5 29.4
09:25 1017 30.03 846 24.98 12 53.6 40 -1.3 29.7
09:30 1017 30.03 846 24.98 12.2 54 38 -1.5 29.3
09:35 1017 30.03 846 24.98 12.3 54.1 38 -1.6 29.2
09:40 1017 30.03 846 24.98 12 53.5 40 -1.3 29.7
09:45 1017 30.03 846 24.98 11.7 53.1 38 -2 28.5
09:50 1017 30.03 846 24.98 11.6 52.9 39 -2 28.5
09:55 1017 30.03 846 24.98 11.6 52.8 39 -2 28.4
10:00 1016 30 846 24.98 11.9 53.4 38 -2 28.5
10:05 1016 30 846 24.98 12.2 53.9 36 -2.5 27.6
10:10 1016 30 846 24.98 12.4 54.2 36 -2.2 28
10:15 1016 30 846 24.98 12.4 54.3 35 -2.5 27.6
10:20 1016 30 846 24.98 12.6 54.6 35 -2.6 27.4
10:25 1016 30 846 24.98 12.6 54.8 35 -2.5 27.6
10:30 1017 30.03 846 24.98 12.7 54.9 35 -2.3 27.9
10:35 1017 30.03 846 24.98 12.8 55 35 -2.1 28.2
10:40 1017 30.03 846 24.98 12.6 54.7 35 -2.2 28
10:45 1017 30.03 846 24.98 12.2 53.9 37 -2 28.4
10:50 1017 30.03 846 24.98 12.1 53.7 36 -2.5 27.5
10:55 1016 30 846 24.98 12.4 54.2 37 -2 28.5
11:00 1016 30 846 24.98 12.2 54 36 -2.4 27.7
11:05 1016 30 846 24.98 12.3 54.2 37 -1.9 28.6
11:10 1016 30 846 24.98 12.4 54.3 37 -1.8 28.7
11:15 1016 30 846 24.98 12.3 54.1 37 -1.9 28.6
11:20 1016 30 845 24.95 12.1 53.8 37 -2.1 28.2
11:25 1016 30 846 24.98 12 53.6 37 -2.1 28.2
11:30 1016 30 845 24.95 12 53.5 36 -2.7 27.1
11:35 1016 30 845 24.95 11.9 53.4 35 -2.8 26.9
11:40 1016 30 846 24.98 12 53.5 35 -2.9 26.7
11:45 1016 30 846 24.98 12.6 54.6 34 -2.9 26.8
11:50 1016 30 846 24.98 13.2 55.7 32 -3.2 26.2
11:55 1016 30 846 24.98 12.9 55.2 32 -3.5 25.6
12:00 1016 30 845 24.95 13.5 56.3 30 -3.5 25.7
12:05 1016 30 845 24.95 13.5 56.2 30 -3.7 25.4
12:10 1016 30 846 24.98 13.5 56.3 30 -3.7 25.4
12:15 1016 30 846 24.98 13.2 55.8 28 -4.7 23.5
12:20 1017 30.03 846 24.98 12.7 54.8 28 -5.6 22
12:25 1017 30.03 846 24.98 12.4 54.4 26 -6.4 20.5
12:30 1016 30 846 24.98 13.1 55.5 24 -7.1 19.2
12:35 1016 30 846 24.98 13.6 56.6 23 -6.9 19.6
12:40 1016 30 846 24.98 14 57.1 23 -6.8 19.7
12:45 1016 30 846 24.98 14.2 57.5 23 -6.5 20.4
12:50 1016 30 846 24.98 14.2 57.5 24 -6.2 20.8
12:55 1016 30 846 24.98 13.9 57 24 -6.2 20.9
13:00 1016 30 846 24.98 14 57.3 24 -6.1 21.1
13:05 1016 30 846 24.98 13.7 56.7 24 -6.3 20.6
13:10 1016 30 846 24.98 13.9 56.9 24 -6.2 20.8
13:15 1016 30 846 24.98 14 57.1 24 -6.2 20.9
13:20 1016 30 846 24.98 13.7 56.7 25 -6.1 21
13:25 1016 30 845 24.95 13.5 56.2 24 -6.7 20
13:30 1017 30.03 846 24.98 13.7 56.6 23 -6.8 19.7
13:35 1016 30 846 24.98 13.7 56.6 24 -6.6 20.1
13:40 1016 30 846 24.98 13.6 56.5 23 -6.9 19.5
13:45 1016 30 846 24.98 13.6 56.4 24 -6.6 20.1
13:50 1017 30.03 846 24.98 13.8 56.8 24 -6.5 20.4
13:55 1017 30.03 846 24.98 13.8 56.9 24 -6.3 20.7
14:00 1017 30.03 846 24.98 13.7 56.7 25 -6 21.3
14:05 1017 30.03 846 24.98 13.7 56.6 25 -5.8 21.6
14:10 1017 30.03 846 24.98 13.5 56.3 26 -5.8 21.6
14:15 1017 30.03 846 24.98 13.4 56.1 26 -5.6 21.9
14:20 1017 30.03 846 24.98 13.5 56.2 27 -5.3 22.4
14:25 1017 30.03 846 24.98 13 55.3 27 -5.6 21.9
14:30 1017 30.03 846 24.98 12.4 54.4 27 -5.8 21.6
14:35 1017 30.03 846 24.98 12.3 54.1 29 -5.1 22.9
14:40 1017 30.03 846 24.98 12.1 53.9 28 -5.6 21.9
14:45 1017 30.03 846 24.98 12.1 53.7 29 -5.4 22.3
14:50 1017 30.03 846 24.98 12 53.5 29 -5.4 22.3
14:55 1017 30.03 846 24.98 11.9 53.4 30 -5.3 22.5
15:00 1017 30.03 846 24.98 11.7 53.1 30 -5.3 22.5
15:05 1017 30.03 846 24.98 11.7 53 31 -5 23.1
15:10 1017 30.03 847 25.01 11.5 52.7 31 -4.9 23.2
15:15 1017 30.03 847 25.01 11.4 52.6 31 -5 23
15:20 1017 30.03 847 25.01 11.3 52.3 31 -5.2 22.6
15:25 1018 30.06 847 25.01 11.2 52.1 32 -5 23
15:30 1018 30.06 847 25.01 11.1 52 31 -5.2 22.7
15:35 1018 30.06 847 25.01 11.1 51.9 31 -5.2 22.6
15:40 1018 30.06 847 25.01 11 51.8 31 -5.3 22.5
15:45 1018 30.06 847 25.01 10.9 51.7 32 -5.1 22.8
15:50 1018 30.06 847 25.01 10.9 51.6 32 -5.1 22.7
15:55 1018 30.06 847 25.01 10.9 51.6 32 -5.2 22.6
16:00 1018 30.06 847 25.01 10.9 51.5 32 -5.2 22.7
16:05 1018 30.06 847 25.01 10.7 51.3 32 -5.1 22.9
16:10 1018 30.06 848 25.04 10.7 51.3 32 -5.2 22.7
16:15 1018 30.06 848 25.04 10.4 50.8 35 -4.5 23.9
16:20 1018 30.06 848 25.04 10.1 50.2 34 -5.1 22.7
16:25 1019 30.09 848 25.04 10.1 50.3 33 -5.2 22.7
16:30 1019 30.09 848 25.04 10.2 50.3 33 -5.2 22.7
16:35 1018 30.06 848 25.04 10.1 50.2 33 -5.2 22.6
16:40 1018 30.06 848 25.04 10.1 50.1 34 -5.2 22.6
16:45 1018 30.06 848 25.04 9.9 49.9 34 -5.4 22.4
16:50 1019 30.09 848 25.04 10 49.9 33 -5.5 22.2
16:55 1019 30.09 848 25.04 10 49.9 33 -5.5 22.1
17:00 1019 30.09 848 25.04 10 49.9 34 -5 23
17:05 1019 30.09 848 25.04 9.6 49.2 36 -4.9 23.2
17:10 1019 30.09 848 25.04 9.3 48.7 36 -5 22.9
17:15 1019 30.09 848 25.04 9.2 48.5 36 -5.2 22.6
17:20 1019 30.09 848 25.04 9.2 48.6 35 -5.3 22.5
17:25 1019 30.09 848 25.04 9.2 48.6 35 -5.3 22.5
17:30 1019 30.09 848 25.04 9.3 48.8 35 -5.4 22.3
17:35 1019 30.09 848 25.04 9.4 49 35 -5.4 22.3
17:40 1019 30.09 848 25.04 9.4 48.9 35 -5.3 22.5
17:45 1019 30.09 848 25.04 9.2 48.5 35 -5.4 22.3
17:50 1019 30.09 848 25.04 9.2 48.5 36 -5.3 22.5
17:55 1019 30.09 848 25.04 9.1 48.3 36 -5.3 22.4
18:00 1019 30.09 848 25.04 9.1 48.3 35 -5.6 22
18:05 1019 30.09 848 25.04 9.2 48.5 35 -5.4 22.3
18:10 1019 30.09 849 25.07 9.2 48.5 35 -5.4 22.2
18:15 1019 30.09 849 25.07 9.1 48.4 36 -5.2 22.6
18:20 1019 30.09 849 25.07 8.9 48 38 -4.8 23.4
18:25 1019 30.09 849 25.07 8.4 47.1 41 -4.2 24.4
18:30 1019 30.09 849 25.07 7.9 46.1 40 -4.8 23.4
18:35 1020 30.12 849 25.07 7.8 46.1 40 -4.9 23.2
18:40 1020 30.12 849 25.07 7.8 46.1 40 -4.9 23.2
18:45 1020 30.12 849 25.07 7.9 46.2 40 -4.9 23.2
18:50 1020 30.12 849 25.07 7.7 45.9 41 -4.8 23.4
18:55 1020 30.12 849 25.07 7.5 45.6 41 -4.9 23.2
19:00 1020 30.12 849 25.07 7.5 45.5 41 -5 23
19:05 1020 30.12 849 25.07 7.3 45.1 41 -4.9 23.1
19:10 1020 30.12 849 25.07 7.2 44.9 42 -4.8 23.4
19:15 1020 30.12 849 25.07 6.8 44.2 44 -4.6 23.7
19:20 1020 30.12 849 25.07 6.5 43.7 43 -5.1 22.9
19:25 1020 30.12 849 25.07 6.7 44.1 42 -5.3 22.5
19:30 1020 30.12 849 25.07 7.1 44.7 41 -5.3 22.5
19:35 1020 30.12 849 25.07 7.2 44.9 42 -5 23
19:40 1020 30.12 849 25.07 7.2 44.9 41 -5.3 22.4
19:45 1020 30.12 849 25.07 7.4 45.4 40 -5.1 22.8
19:50 1020 30.12 849 25.07 7.5 45.4 41 -5.1 22.8
19:55 1020 30.12 849 25.07 7.5 45.5 40 -5.1 22.7
20:00 1020 30.12 849 25.07 7.6 45.7 41 -4.8 23.3
20:05 1020 30.12 849 25.07 7.4 45.2 42 -4.6 23.7
20:10 1020 30.12 849 25.07 6.4 43.5 46 -4.5 23.9
20:15 1020 30.12 849 25.07 6.5 43.7 44 -4.8 23.3
20:20 1020 30.12 849 25.07 6.5 43.7 45 -4.7 23.6
20:25 1020 30.12 849 25.07 6.2 43.2 45 -4.9 23.1
20:30 1020 30.12 849 25.07 6.5 43.7 44 -4.9 23.1
20:35 1020 30.12 850 25.1 6.4 43.6 44 -4.8 23.3
20:40 1020 30.12 849 25.07 7.1 44.8 41 -5.1 22.8
20:45 1020 30.12 849 25.07 7.3 45.1 41 -5 23
20:50 1020 30.12 849 25.07 7.2 45 43 -4.6 23.8
20:55 1020 30.12 850 25.1 6.5 43.7 47 -3.9 25
21:00 1020 30.12 850 25.1 5.6 42.1 52 -3.6 25.6
21:05 1020 30.12 850 25.1 4.7 40.4 55 -3.6 25.6
21:10 1020 30.12 850 25.1 4.2 39.5 55 -4 24.9
21:15 1020 30.12 849 25.07 4.5 40.1 54 -4 24.9
21:20 1020 30.12 850 25.1 5 41 52 -4 24.9
21:25 1020 30.12 850 25.1 5.3 41.5 51 -4 24.8
21:30 1020 30.12 850 25.1 5.6 42.1 51 -3.8 25.2
21:35 1020 30.12 850 25.1 5.4 41.8 50 -4.1 24.7
21:40 1021 30.15 850 25.1 5.8 42.4 50 -3.9 24.9
21:45 1020 30.12 850 25.1 5.9 42.7 47 -4.6 23.7
21:50 1021 30.15 850 25.1 6.2 43.2 50 -3.5 25.6
21:55 1020 30.12 850 25.1 5.8 42.4 51 -3.6 25.5
22:00 1020 30.12 850 25.1 5.3 41.6 53 -3.5 25.8
22:05 1020 30.12 850 25.1 5.2 41.4 54 -3.4 25.9
22:10 1021 30.15 850 25.1 5.1 41.2 53 -3.7 25.4
22:15 1020 30.12 850 25.1 5.4 41.8 53 -3.3 26
22:20 1020 30.12 849 25.07 5.5 42 52 -3.5 25.7
22:25 1020 30.12 849 25.07 5.2 41.3 55 -3.1 26.5
22:30 1020 30.12 850 25.1 5.4 41.8 51 -3.9 25
22:35 1020 30.12 850 25.1 5.9 42.6 53 -3 26.7
22:40 1020 30.12 849 25.07 5.8 42.4 52 -3.3 26.1
22:45 1020 30.12 850 25.1 5.6 42 53 -3.3 26
22:50 1020 30.12 850 25.1 5.5 41.8 52 -3.7 25.4
22:55 1020 30.12 849 25.07 5.4 41.7 56 -2.7 27.1
23:00 1020 30.12 849 25.07 4.8 40.6 56 -3.2 26.3
23:05 1020 30.12 849 25.07 4.7 40.4 57 -3.1 26.4
23:10 1020 30.12 849 25.07 4.6 40.3 58 -2.9 26.7
23:15 1020 30.12 849 25.07 4.7 40.4 56 -3.4 25.9
23:20 1020 30.12 849 25.07 5.1 41.2 56 -3.1 26.5
23:25 1020 30.12 849 25.07 4.9 40.8 55 -3.3 26
23:30 1020 30.12 849 25.07 5 40.9 55 -3.2 26.2
23:35 1020 30.12 849 25.07 4.8 40.7 57 -2.9 26.7
23:40 1020 30.12 849 25.07 4.5 40.1 57 -3.2 26.3
23:45 1020 30.12 849 25.07 4.9 40.9 54 -3.7 25.4
23:50 1020 30.12 849 25.07 5 41 56 -3 26.7
23:55 1020 30.12 849 25.07 4.7 40.4 55 -3.6 25.5
24:00 1020 30.12 849 25.07 5 41 53 -3.8 25.2